Time;durP1;ratioP1;P1;durP2;ratioP2;P2;SDS_P1;SDS_P2;PMS_P1;PMS_P2;Temp;Humidity;BMP_temperature;BMP_pressure;BME280_temperature;BME280_humidity;BME280_pressure;Samples;Min_cycle;Max_cycle;Signal;HPM_P1;HPM_P2
2024/03/02 06:42:27;;;;;;;2.15;1.25;;;;;;;;;;10593684;27;20113;-79
2024/03/02 06:47:28;;;;;;;;;;;;;;;;;;10595261;28;20027;-78
2024/03/02 06:52:29;;;;;;;3.33;1.40;;;;;;;;;;10593810;28;19911;-77
2024/03/02 06:57:31;;;;;;;1.25;0.80;;;;;;;;;;10574389;28;20052;-80
2024/03/02 07:02:32;;;;;;;5.28;1.05;;;;;;;;;;10590277;28;20031;-80
2024/03/02 07:07:36;;;;;;;3.22;1.35;;;;;;;;;;10588583;28;20404;-79
2024/03/02 07:12:37;;;;;;;5.10;1.20;;;;;;;;;;10572948;28;20023;-79
2024/03/02 07:17:38;;;;;;;2.72;1.25;;;;;;;;;;10589761;28;20095;-79
2024/03/02 07:22:39;;;;;;;3.03;1.90;;;;;;;;;;10572573;28;20422;-78
2024/03/02 07:27:41;;;;;;;3.53;2.00;;;;;;;;;;10591402;28;20016;-78
2024/03/02 07:32:45;;;;;;;4.55;2.03;;;;;;;;;;10581804;28;20048;-77
2024/03/02 07:37:46;;;;;;;3.78;2.10;;;;;;;;;;10587725;28;20058;-76
2024/03/02 07:42:47;;;;;;;4.22;2.50;;;;;;;;;;10605605;28;20074;-76
2024/03/02 07:47:49;;;;;;;4.47;2.45;;;;;;;;;;10603628;28;20099;-78
2024/03/02 07:52:50;;;;;;;3.88;1.73;;;;;;;;;;10578857;28;20103;-77
2024/03/02 07:57:51;;;;;;;4.60;2.17;;;;;;;;;;10573272;28;20028;-78
2024/03/02 08:02:52;;;;;;;5.05;2.78;;;;;;;;;;10554026;28;20040;-77
2024/03/02 08:07:54;;;;;;;3.22;1.20;;;;;;;;;;10572638;28;20110;-78
2024/03/02 08:12:55;;;;;;;5.20;2.83;;;;;;;;;;10552059;28;20027;-78
2024/03/02 08:17:56;;;;;;;;;;;;;;;;;;10535126;28;20119;-77
2024/03/02 08:22:57;;;;;;;3.97;2.85;;;;;;;;;;10568812;28;19956;-77
2024/03/02 08:27:58;;;;;;;4.38;2.33;;;;;;;;;;10552240;28;20032;-78
2024/03/02 08:33:01;;;;;;;4.63;2.30;;;;;;;;;;10572863;28;20128;-78
2024/03/02 08:38:05;;;;;;;3.80;2.22;;;;;;;;;;10486870;22;20508;-83
2024/03/02 08:43:07;;;;;;;4.13;2.80;;;;;;;;;;10476262;28;20373;-83
2024/03/02 08:48:08;;;;;;;4.03;2.08;;;;;;;;;;10506374;28;20036;-82
2024/03/02 08:53:09;;;;;;;3.30;1.80;;;;;;;;;;10508437;28;20008;-83
2024/03/02 08:58:10;;;;;;;4.18;2.13;;;;;;;;;;10506923;28;20029;-82
2024/03/02 09:03:11;;;;;;;3.92;2.17;;;;;;;;;;10507330;28;20040;-83
2024/03/02 09:08:12;;;;;;;;;;;;;;;;;;10505357;28;20048;-84
2024/03/02 09:13:13;;;;;;;3.47;1.80;;;;;;;;;;10489697;28;19955;-84
2024/03/02 09:18:14;;;;;;;;;;;;;;;;;;10477376;28;20025;-83
2024/03/02 09:23:15;;;;;;;2.90;1.67;;;;;;;;;;10478143;28;19999;-84
2024/03/02 09:28:16;;;;;;;;;;;;;;;;;;10476925;28;20531;-83
2024/03/02 09:33:17;;;;;;;2.92;1.48;;;;;;;;;;10475341;28;19936;-83
2024/03/02 09:38:18;;;;;;;;;;;;;;;;;;10474102;28;20047;-83
2024/03/02 09:43:19;;;;;;;2.63;1.55;;;;;;;;;;10473451;28;20314;-83
2024/03/02 09:48:20;;;;;;;2.13;1.10;;;;;;;;;;10481921;28;20105;-82
2024/03/02 09:53:22;;;;;;;3.58;1.75;;;;;;;;;;10477337;28;20017;-80
2024/03/02 09:58:24;;;;;;;2.20;1.30;;;;;;;;;;10507551;28;20032;-81
2024/03/02 10:03:25;;;;;;;1.80;1.10;;;;;;;;;;10507473;28;20021;-82
2024/03/02 10:08:25;;;;;;;;;;;;;;;;;;10482803;28;20048;-82
2024/03/02 10:13:26;;;;;;;2.42;1.40;;;;;;;;;;10471570;28;19905;-83
2024/03/02 10:18:29;;;;;;;;;;;;;;;;;;10457170;28;20067;-82
2024/03/02 10:23:31;;;;;;;2.45;1.25;;;;;;;;;;10475846;28;20003;-84
2024/03/02 10:28:32;;;;;;;2.20;1.23;;;;;;;;;;10462558;28;20025;-82
2024/03/02 10:33:33;;;;;;;;;;;;;;;;;;10477716;28;20108;-82
2024/03/02 10:38:34;;;;;;;2.88;1.20;;;;;;;;;;10471663;28;19908;-82
2024/03/02 10:43:36;;;;;;;;;;;;;;;;;;10454740;28;20105;-82
2024/03/02 10:48:37;;;;;;;2.35;1.38;;;;;;;;;;10473114;28;19956;-81
2024/03/02 10:53:38;;;;;;;2.95;1.13;;;;;;;;;;10457704;28;20556;-82
2024/03/02 10:58:39;;;;;;;;;;;;;;;;;;10481743;28;20036;-80
2024/03/02 11:03:41;;;;;;;3.17;1.40;;;;;;;;;;10472200;28;19905;-81
2024/03/02 11:08:43;;;;;;;3.85;1.63;;;;;;;;;;10467981;28;20128;-82
2024/03/02 11:13:50;;;;;;;2.63;1.20;;;;;;;;;;10467939;28;20025;-85
2024/03/02 11:18:52;;;;;;;4.20;1.30;;;;;;;;;;10450530;28;20503;-83
2024/03/02 11:23:53;;;;;;;3.08;1.10;;;;;;;;;;10445821;28;20035;-82
2024/03/02 11:28:56;;;;;;;2.95;1.50;;;;;;;;;;10453967;28;20029;-81
2024/03/02 11:33:57;;;;;;;3.60;2.10;;;;;;;;;;10455810;28;20041;-82
2024/03/02 11:38:58;;;;;;;2.58;1.40;;;;;;;;;;10454290;28;20124;-81
2024/03/02 11:43:59;;;;;;;;;;;;;;;;;;10473542;28;20099;-80
2024/03/02 11:49:00;;;;;;;2.83;1.10;;;;;;;;;;10475807;28;19909;-84
2024/03/02 11:54:01;;;;;;;;;;;;;;;;;;10465343;28;20485;-83
2024/03/02 11:59:03;;;;;;;2.17;0.90;;;;;;;;;;10478401;28;19966;-83
2024/03/02 12:04:05;;;;;;;1.63;0.93;;;;;;;;;;10476269;28;20456;-83
2024/03/02 12:09:14;;;;;;;1.98;0.95;;;;;;;;;;10473694;28;20035;-83
2024/03/02 12:14:15;;;;;;;2.00;1.05;;;;;;;;;;10481899;28;20041;-84
2024/03/02 12:19:17;;;;;;;;;;;;;;;;;;10461530;28;20036;-83
2024/03/02 12:24:18;;;;;;;3.13;0.90;;;;;;;;;;10473238;28;20003;-82
2024/03/02 12:29:19;;;;;;;;;;;;;;;;;;10454752;28;20032;-83
2024/03/02 12:34:20;;;;;;;2.40;0.98;;;;;;;;;;10470775;28;19913;-83
2024/03/02 12:39:22;;;;;;;;;;;;;;;;;;10469908;28;20020;-82
2024/03/02 12:44:23;;;;;;;1.83;0.98;;;;;;;;;;10470263;28;19908;-83
2024/03/02 12:49:24;;;;;;;;;;;;;;;;;;10453760;28;20472;-84
2024/03/02 12:54:27;;;;;;;3.25;1.15;;;;;;;;;;10469945;28;19904;-83
2024/03/02 12:59:29;;;;;;;1.60;0.80;;;;;;;;;;10471970;28;20025;-84
2024/03/02 13:04:30;;;;;;;1.65;0.73;;;;;;;;;;10471356;28;20029;-82
2024/03/02 13:09:33;;;;;;;2.63;0.80;;;;;;;;;;10470501;28;20033;-83
2024/03/02 13:14:46;;;;;;;2.75;1.05;;;;;;;;;;10451929;28;20021;-86
2024/03/02 13:19:54;;;;;;;2.17;1.10;;;;;;;;;;10451624;28;20108;-86
2024/03/02 13:24:55;;;;;;;1.80;0.88;;;;;;;;;;10444590;28;20108;-84
2024/03/02 13:29:56;;;;;;;;;;;;;;;;;;10472873;28;20499;-86
2024/03/02 13:35:02;;;;;;;2.10;1.00;;;;;;;;;;10469542;28;19913;-85
2024/03/02 13:40:23;;;;;;;1.98;0.90;;;;;;;;;;10377446;28;20115;-86
2024/03/02 13:45:24;;;;;;;2.38;0.98;;;;;;;;;;10451538;28;20025;-85
2024/03/02 13:50:25;;;;;;;;;;;;;;;;;;10470079;28;20025;-85
2024/03/02 13:55:26;;;;;;;1.10;0.80;;;;;;;;;;10466524;28;19904;-84
2024/03/02 14:00:28;;;;;;;0.88;0.70;;;;;;;;;;10450863;28;20037;-87
2024/03/02 14:05:29;;;;;;;1.77;0.85;;;;;;;;;;10447400;28;20098;-86
2024/03/02 14:10:30;;;;;;;;;;;;;;;;;;10465012;28;20084;-86
2024/03/02 14:15:33;;;;;;;1.77;0.90;;;;;;;;;;10464149;28;19904;-86
2024/03/02 14:20:34;;;;;;;1.70;0.80;;;;;;;;;;10446276;28;20029;-86
2024/03/02 14:25:35;;;;;;;0.98;0.65;;;;;;;;;;10465485;28;20064;-85
2024/03/02 14:30:37;;;;;;;1.50;0.80;;;;;;;;;;10446675;28;20092;-86
2024/03/02 14:36:06;;;;;;;1.50;0.80;;;;;;;;;;10441219;22;20068;-85
2024/03/02 14:41:13;;;;;;;6.63;0.90;;;;;;;;;;10423762;28;20085;-84
2024/03/02 14:46:27;;;;;;;2.80;1.83;;;;;;;;;;10423817;28;20026;-85
2024/03/02 14:56:57;;;;;;;1.65;1.00;;;;;;;;;;10454411;28;20042;-83
2024/03/02 15:01:58;;;;;;;3.17;1.63;;;;;;;;;;10421855;28;20021;-83
2024/03/02 15:06:59;;;;;;;2.80;1.63;;;;;;;;;;10444241;28;20060;-84
2024/03/02 15:12:00;;;;;;;2.42;1.60;;;;;;;;;;10430064;28;20116;-85
2024/03/02 15:17:02;;;;;;;3.10;2.05;;;;;;;;;;10420777;28;20033;-84
2024/03/02 15:22:03;;;;;;;;;;;;;;;;;;10434347;28;20507;-84
2024/03/02 15:27:05;;;;;;;2.25;1.40;;;;;;;;;;10410493;28;20015;-83
2024/03/02 15:32:06;;;;;;;2.40;1.20;;;;;;;;;;10419184;28;20413;-84
2024/03/02 15:37:07;;;;;;;1.08;0.60;;;;;;;;;;10430225;28;20033;-83
2024/03/02 15:42:08;;;;;;;;;;;;;;;;;;10410104;28;20481;-83
2024/03/02 15:47:10;;;;;;;2.47;1.30;;;;;;;;;;10411317;28;19905;-84
2024/03/02 15:52:12;;;;;;;;;;;;;;;;;;10414472;28;20127;-85
2024/03/02 15:57:14;;;;;;;2.90;1.65;;;;;;;;;;10413199;28;19912;-85
2024/03/02 16:02:15;;;;;;;2.65;1.58;;;;;;;;;;10409432;28;20092;-83
2024/03/02 16:07:16;;;;;;;;;;;;;;;;;;10410559;28;20029;-84
2024/03/02 16:12:17;;;;;;;;;;;;;;;;;;10409656;28;19967;-83
2024/03/02 16:17:19;;;;;;;3.40;1.80;;;;;;;;;;10428963;28;19905;-84
2024/03/02 16:22:20;;;;;;;1.60;1.10;;;;;;;;;;10415323;28;20443;-83
2024/03/02 16:27:21;;;;;;;3.15;1.77;;;;;;;;;;10413017;28;20029;-84
2024/03/02 16:32:22;;;;;;;;;;;;;;;;;;10412443;28;20025;-83
2024/03/02 16:37:24;;;;;;;2.63;1.40;;;;;;;;;;10410235;28;19920;-83
2024/03/02 16:42:25;;;;;;;3.25;1.88;;;;;;;;;;10409890;28;20032;-83
2024/03/02 16:47:26;;;;;;;;;;;;;;;;;;10410214;28;20037;-84
2024/03/02 16:52:28;;;;;;;2.60;1.60;;;;;;;;;;10411130;28;20356;-83
2024/03/02 16:57:29;;;;;;;1.58;1.10;;;;;;;;;;10407854;28;20026;-83
2024/03/02 17:02:30;;;;;;;;;;;;;;;;;;10407572;28;20128;-83
2024/03/02 17:07:31;;;;;;;2.60;1.50;;;;;;;;;;10408002;28;19905;-84
2024/03/02 17:12:32;;;;;;;2.78;1.60;;;;;;;;;;10426292;28;20546;-84
2024/03/02 17:17:33;;;;;;;;;;;;;;;;;;10411967;28;20022;-84
2024/03/02 17:22:35;;;;;;;3.20;1.73;;;;;;;;;;10406907;28;20276;-84
2024/03/02 17:27:36;;;;;;;2.83;1.30;;;;;;;;;;10429826;28;20484;-85
2024/03/02 17:32:37;;;;;;;2.55;1.55;;;;;;;;;;10409963;28;20068;-85
2024/03/02 17:37:40;;;;;;;2.00;1.30;;;;;;;;;;10427284;28;20120;-84
2024/03/02 17:42:41;;;;;;;3.47;2.08;;;;;;;;;;10409188;28;20025;-84
2024/03/02 17:47:42;;;;;;;2.30;1.50;;;;;;;;;;10414299;28;20449;-84
2024/03/02 17:52:43;;;;;;;2.90;1.83;;;;;;;;;;10428698;28;20028;-84
2024/03/02 17:57:44;;;;;;;;;;;;;;;;;;10412453;28;20083;-84
2024/03/02 18:02:45;;;;;;;2.22;1.35;;;;;;;;;;10429444;28;19935;-83
2024/03/02 18:07:46;;;;;;;3.85;1.75;;;;;;;;;;10414391;28;20485;-84
2024/03/02 18:12:47;;;;;;;2.83;1.40;;;;;;;;;;10409846;28;20134;-84
2024/03/02 18:17:48;;;;;;;2.42;1.75;;;;;;;;;;10409330;28;20037;-83
2024/03/02 18:22:49;;;;;;;;;;;;;;;;;;10412041;28;20357;-84
2024/03/02 18:27:50;;;;;;;2.40;1.73;;;;;;;;;;10412964;28;19915;-85
2024/03/02 18:32:51;;;;;;;;;;;;;;;;;;10427518;28;20037;-85
2024/03/02 18:37:52;;;;;;;2.50;1.70;;;;;;;;;;10407238;28;20383;-85
2024/03/02 18:42:53;;;;;;;;;;;;;;;;;;10413088;28;20041;-85
2024/03/02 18:47:54;;;;;;;2.25;1.48;;;;;;;;;;10409946;28;20349;-84
2024/03/02 18:52:55;;;;;;;;;;;;;;;;;;10410476;28;20061;-85
2024/03/02 18:57:56;;;;;;;2.75;1.92;;;;;;;;;;10412247;28;19927;-84
2024/03/02 19:02:58;;;;;;;2.80;1.88;;;;;;;;;;10411010;28;20029;-85
2024/03/02 19:07:59;;;;;;;4.00;1.83;;;;;;;;;;10408519;28;20033;-84
2024/03/02 19:13:00;;;;;;;;;;;;;;;;;;10413392;28;20490;-84
2024/03/02 19:18:01;;;;;;;;;;;;;;;;;;10411177;28;20008;-84
2024/03/02 19:23:02;;;;;;;2.60;1.48;;;;;;;;;;10412226;28;19984;-84
2024/03/02 19:28:03;;;;;;;;;;;;;;;;;;10407122;28;20068;-84
2024/03/02 19:33:04;;;;;;;3.40;1.90;;;;;;;;;;10429469;28;19905;-84
2024/03/02 19:38:07;;;;;;;3.10;2.10;;;;;;;;;;10416101;28;20053;-84
2024/03/02 19:43:08;;;;;;;3.40;1.75;;;;;;;;;;10408248;28;20025;-85
2024/03/02 19:48:09;;;;;;;3.60;2.20;;;;;;;;;;10427959;28;20083;-85
2024/03/02 19:53:10;;;;;;;;;;;;;;;;;;10411551;28;20400;-84
2024/03/02 19:58:11;;;;;;;3.33;2.30;;;;;;;;;;10415516;28;19972;-84
2024/03/02 20:03:14;;;;;;;;;;;;;;;;;;10415407;28;20060;-86
